AirNav   Pilot Hours Calculator
 
 1060 users online  

0TA0 Mainland Regional Health Care System Heliport
Lamarque/Texas City, Texas, USA

GOING TO LAMARQUE/TEXAS CITY?


FAA INFORMATION EFFECTIVE 02 JANUARY 2020

Location

FAA Identifier: 0TA0
Lat/Long: 29-23-42.0900N 094-59-10.8900W
29-23.701500N 094-59.181500W
29.3950250,-94.9863583
(estimated)
Elevation: 16 ft. / 5 m (estimated)
Variation: 06E (1985)
From city: 2 miles N of central business district of the associated city
Time zone: UTC -6 (UTC -5 during Daylight Saving Time)
Zip code: 77591

Heliport Operations

Heliport use: Private use, MEDICAL.
Activation date: 01/1968
Control tower: no
ARTCC: HOUSTON CENTER
FSS: MONTGOMERY COUNTY FLIGHT SERVICE STATION
FOR FP FILING CALL CXO FSS 1-800-833-5602.
Attendance: UNATNDD
Wind indicator: yes
Segmented circle: no

Heliport Communications

WX ASOS at GLS (10 nm SE): 119.275 (409-740-9248)
WX ASOS at LVJ (15 nm NW): 118.525 (281-992-1853)
WX AWOS-3PT at T41 (17 nm N): 120.275 (281-471-2206)

Nearby radio navigation aids

VOR radial/distance  VOR name  Freq  Var
VUHr315/9.8SCHOLES VOR/DME113.0006E
MHFr227/15.4TRINITY VOR/DME113.6007E
HUBr131/21.8HOBBY VOR/DME117.1005E
IAHr146/38.6HUMBLE VORTAC116.6005E

 
NDB name  Hdg/Dist  Freq  Var  ID
GALVESTON279/12.620608EGLS --. .-.. ...

Heliport Services

Airframe service: NONE
Powerplant service: NONE

Runway Information

Helipad H1

Dimensions: 45 x 45 ft. / 14 x 14 m
Surface: concrete
36,000 LBS.
Latitude: 29-23.701500N
Longitude: 094-59.181500W
Elevation: 16.0 ft.
Traffic pattern: leftleft

Heliport Ownership and Management from official FAA records

Ownership: Privately-owned
Owner: MAINLAND RGNL HEALTH CARE SYS
PO BOX 2756
TEXAS CITY, TX 77592-2756
Phone 409-938-5000
Manager: STEVE BROWN
PO BOX 2756
TEXAS CITY, TX 77592-2756
Phone 409-938-5000

Additional Remarks

FOR CD CTC HOUSTON ARTCC AT 281-230-5622.

Instrument Procedures

There are no published instrument procedures at 0TA0.

Some nearby airports with instrument procedures:

KGLS - Scholes International Airport at Galveston (10 nm SE)
KLVJ - Pearland Regional Airport (15 nm NW)
KEFD - Ellington Airport (16 nm NW)
T41 - La Porte Municipal Airport (17 nm N)
KHOU - William P Hobby Airport (21 nm NW)
 
Loc | Ops | Rwys | IFR | FBO | Links
Com | Nav | Svcs | Stats | Notes
Area around 0TA0 (Mainland Regional Health Care System Heliport)
 
Road maps at: MapQuest Bing Google
 
Aerial photo
No photo
 
Sectional chart

 
Airport distance calculator
Flying to Mainland Regional Health Care System Heliport? Find the distance to fly.

From to 0TA0

Sunrise and sunset
Times for 29-Jan-2020
 Local
(UTC-6)
 Zulu
(UTC)
Morning civil twilight06:4712:47
Sunrise07:1213:12
Sunset17:5423:54
Evening civil twilight18:1900:19

Current date and time
Zulu (UTC)  29-Jan-2020 12:17:48
Local (UTC-6)  29-Jan-2020 06:17:48
 
METAR
KGLS 
10nm SE 
291152Z 31016G22KT 10SM BKN029 10/04 A2996 RMK AO2 SLP144 70046 T01000044 10128 20094 53012
KEFD 
15nm NW 
291150Z 30013G19KT 10SM BKN028 OVC039 09/04 A2995
KLVJ 
16nm NW 
291153Z AUTO 30010G15KT 10SM OVC029 09/03 A2997 RMK AO2 SLP147 70027 T00940033 10117 20089 51007
TAF
KGLS 
10nm SE 
291144Z 2912/3012 32015G24KT P6SM BKN028 FM291500 31014G22KT P6SM BKN025 FM291800 35012G21KT P6SM FEW030 FM292200 36012KT P6SM SKC FM300600 03011KT P6SM BKN021 FM300900 03011KT P6SM BKN018
KEFD 
15nm NW 
291200Z 2912/3018 31010G15KT 9999 OVC030 QNH2994INS BECMG 2915/2916 33012G18KT 9999 BKN050 QNH3000INS BECMG 3000/3001 33009KT 9999 FEW007 BKN025 QNH3002INS BECMG 3008/3009 01009KT 9999 OVC005 QNH3010INS BECMG 3015/3016 02009KT 9999 FEW010 BKN015 QNH3013INS TX16/2921Z TN06/2912Z
NOTAMs
Click for the latest NOTAMs
NOTAMs are issued by the DoD/FAA and will open in a separate window not controlled by AirNav.

 

 
 

Would you like to see your business listed on this page?

 If your business provides an interesting product or service to pilots, flight crews, aircraft, or users of the Mainland Regional Health Care System Heliport, you should consider listing it here.  To start the listing process, click on the button below
 
Add a business
 

Other Pages about Mainland Regional Health Care System Heliport

Update a link
 
Copyright © AirNav, LLC. All rights reserved. Privacy Policy  Contact